sensor_id;sensor_type;location;lat;lon;timestamp;pressure;altitude;pressure_sealevel;temperature;humidity
10127;BME280;13080;42.608;23.362;2023-03-14T00:00:40;151164.06;;;0.23;63.35
10127;BME280;13080;42.608;23.362;2023-03-14T00:03:06;151152.44;;;0.18;62.95
10127;BME280;13080;42.608;23.362;2023-03-14T00:05:34;151142.16;;;0.14;62.88
10127;BME280;13080;42.608;23.362;2023-03-14T00:08:00;151138.28;;;0.12;63.13
10127;BME280;13080;42.608;23.362;2023-03-14T00:10:27;151135.72;;;0.11;63.28
10127;BME280;13080;42.608;23.362;2023-03-14T00:12:56;151146.00;;;0.15;63.23
10127;BME280;13080;42.608;23.362;2023-03-14T00:15:23;151140.84;;;0.13;63.38
10127;BME280;13080;42.608;23.362;2023-03-14T00:17:49;151127.97;;;0.08;63.46
10127;BME280;13080;42.608;23.362;2023-03-14T00:20:16;151115.13;;;0.03;63.07
10127;BME280;13080;42.608;23.362;2023-03-14T00:22:43;151125.44;;;0.07;63.37
10127;BME280;13080;42.608;23.362;2023-03-14T00:25:11;151111.25;;;0.02;64.32
10127;BME280;13080;42.608;23.362;2023-03-14T00:27:38;151089.34;;;-0.07;64.79
10127;BME280;13080;42.608;23.362;2023-03-14T00:30:08;151075.19;;;-0.13;64.95
10127;BME280;13080;42.608;23.362;2023-03-14T00:32:36;151052.03;;;-0.22;64.86
10127;BME280;13080;42.608;23.362;2023-03-14T00:35:03;151037.84;;;-0.28;64.76
10127;BME280;13080;42.608;23.362;2023-03-14T00:37:30;151023.72;;;-0.33;64.10
10127;BME280;13080;42.608;23.362;2023-03-14T00:39:56;151015.94;;;-0.36;64.81
10127;BME280;13080;42.608;23.362;2023-03-14T00:42:24;151009.53;;;-0.39;67.09
10127;BME280;13080;42.608;23.362;2023-03-14T00:44:50;151003.09;;;-0.42;67.44
10127;BME280;13080;42.608;23.362;2023-03-14T00:47:18;150979.94;;;-0.51;68.24
10127;BME280;13080;42.608;23.362;2023-03-14T00:49:45;150973.50;;;-0.53;68.31
10127;BME280;13080;42.608;23.362;2023-03-14T00:52:12;150968.34;;;-0.55;69.28
10127;BME280;13080;42.608;23.362;2023-03-14T00:54:38;150949.00;;;-0.63;69.52
10127;BME280;13080;42.608;23.362;2023-03-14T00:57:05;150934.88;;;-0.69;69.98
10127;BME280;13080;42.608;23.362;2023-03-14T00:59:32;150916.88;;;-0.76;69.92
10127;BME280;13080;42.608;23.362;2023-03-14T01:01:59;150938.75;;;-0.67;69.39
10127;BME280;13080;42.608;23.362;2023-03-14T01:04:27;150942.59;;;-0.66;68.87
10127;BME280;13080;42.608;23.362;2023-03-14T01:06:56;150931.00;;;-0.70;68.39
10127;BME280;13080;42.608;23.362;2023-03-14T01:09:22;150940.03;;;-0.67;68.52
10127;BME280;13080;42.608;23.362;2023-03-14T01:11:49;150938.75;;;-0.67;68.24
10127;BME280;13080;42.608;23.362;2023-03-14T01:14:16;150929.72;;;-0.71;68.11
10127;BME280;13080;42.608;23.362;2023-03-14T01:16:43;150920.69;;;-0.74;68.43
10127;BME280;13080;42.608;23.362;2023-03-14T01:19:09;150910.44;;;-0.78;68.16
10127;BME280;13080;42.608;23.362;2023-03-14T01:21:38;150909.13;;;-0.79;68.90
10127;BME280;13080;42.608;23.362;2023-03-14T01:24:05;150888.56;;;-0.87;68.60
10127;BME280;13080;42.608;23.362;2023-03-14T01:26:34;150892.38;;;-0.86;69.01
10127;BME280;13080;42.608;23.362;2023-03-14T01:29:01;150889.84;;;-0.87;69.97
10127;BME280;13080;42.608;23.362;2023-03-14T01:31:28;150898.81;;;-0.83;70.88
10127;BME280;13080;42.608;23.362;2023-03-14T01:33:55;150888.56;;;-0.87;70.29
10127;BME280;13080;42.608;23.362;2023-03-14T01:36:22;150885.97;;;-0.88;71.35
10127;BME280;13080;42.608;23.362;2023-03-14T01:38:50;150879.53;;;-0.91;70.35
10127;BME280;13080;42.608;23.362;2023-03-14T01:41:19;150865.41;;;-0.96;71.37
10127;BME280;13080;42.608;23.362;2023-03-14T01:43:46;150852.50;;;-1.01;71.19
10127;BME280;13080;42.608;23.362;2023-03-14T01:46:36;150857.66;;;-0.99;71.79
10127;BME280;13080;42.608;23.362;2023-03-14T01:49:20;150852.50;;;-1.01;72.58
10127;BME280;13080;42.608;23.362;2023-03-14T01:51:51;150847.34;;;-1.03;72.20
10127;BME280;13080;42.608;23.362;2023-03-14T01:54:25;150834.50;;;-1.09;72.29
10127;BME280;13080;42.608;23.362;2023-03-14T01:56:57;150837.09;;;-1.08;72.10
10127;BME280;13080;42.608;23.362;2023-03-14T01:59:25;150844.81;;;-1.05;71.93
10127;BME280;13080;42.608;23.362;2023-03-14T02:01:54;150839.66;;;-1.07;73.32
10127;BME280;13080;42.608;23.362;2023-03-14T02:04:21;150829.34;;;-1.11;72.74
10127;BME280;13080;42.608;23.362;2023-03-14T02:06:54;150828.06;;;-1.11;72.89
10127;BME280;13080;42.608;23.362;2023-03-14T02:09:24;150820.38;;;-1.14;73.25
10127;BME280;13080;42.608;23.362;2023-03-14T02:11:51;150819.06;;;-1.15;73.45
10127;BME280;13080;42.608;23.362;2023-03-14T02:14:30;150825.47;;;-1.12;73.21
10127;BME280;13080;42.608;23.362;2023-03-14T02:16:58;150822.94;;;-1.13;73.13
10127;BME280;13080;42.608;23.362;2023-03-14T02:19:31;150798.50;;;-1.23;73.22
10127;BME280;13080;42.608;23.362;2023-03-14T02:22:05;150797.19;;;-1.23;73.38
10127;BME280;13080;42.608;23.362;2023-03-14T02:24:40;150797.19;;;-1.23;73.94
10127;BME280;13080;42.608;23.362;2023-03-14T02:27:11;150795.91;;;-1.24;73.35
10127;BME280;13080;42.608;23.362;2023-03-14T02:29:42;150794.63;;;-1.24;73.36
10127;BME280;13080;42.608;23.362;2023-03-14T02:32:12;150792.06;;;-1.26;73.12
10127;BME280;13080;42.608;23.362;2023-03-14T02:34:42;150783.06;;;-1.29;73.13
10127;BME280;13080;42.608;23.362;2023-03-14T02:37:11;150788.19;;;-1.27;73.28
10127;BME280;13080;42.608;23.362;2023-03-14T02:39:40;150781.78;;;-1.30;74.07
10127;BME280;13080;42.608;23.362;2023-03-14T02:42:11;150776.63;;;-1.32;72.94
10127;BME280;13080;42.608;23.362;2023-03-14T02:44:48;150768.88;;;-1.35;72.71
10127;BME280;13080;42.608;23.362;2023-03-14T02:47:15;150765.06;;;-1.36;72.94
10127;BME280;13080;42.608;23.362;2023-03-14T02:49:42;150757.31;;;-1.39;73.77
10127;BME280;13080;42.608;23.362;2023-03-14T02:52:09;150762.44;;;-1.37;73.69
10127;BME280;13080;42.608;23.362;2023-03-14T02:54:36;150753.47;;;-1.41;73.80
10127;BME280;13080;42.608;23.362;2023-03-14T02:57:03;150756.03;;;-1.40;74.08
10127;BME280;13080;42.608;23.362;2023-03-14T02:59:31;150745.72;;;-1.44;74.68
10127;BME280;13080;42.608;23.362;2023-03-14T03:01:59;150752.16;;;-1.41;73.68
10127;BME280;13080;42.608;23.362;2023-03-14T03:04:26;150741.91;;;-1.45;73.65
10127;BME280;13080;42.608;23.362;2023-03-14T03:06:52;150752.16;;;-1.41;73.14
10127;BME280;13080;42.608;23.362;2023-03-14T03:09:19;150752.16;;;-1.41;73.14
10127;BME280;13080;42.608;23.362;2023-03-14T03:11:46;150756.03;;;-1.40;72.51
10127;BME280;13080;42.608;23.362;2023-03-14T03:14:12;150752.16;;;-1.41;72.80
10127;BME280;13080;42.608;23.362;2023-03-14T03:16:40;150757.31;;;-1.39;73.06
10127;BME280;13080;42.608;23.362;2023-03-14T03:19:07;150756.03;;;-1.40;73.15
10127;BME280;13080;42.608;23.362;2023-03-14T03:21:34;150753.47;;;-1.41;73.29
10127;BME280;13080;42.608;23.362;2023-03-14T03:24:01;150758.63;;;-1.39;73.75
10127;BME280;13080;42.608;23.362;2023-03-14T03:26:27;150758.63;;;-1.39;73.50
10127;BME280;13080;42.608;23.362;2023-03-14T03:28:54;150765.06;;;-1.36;73.55
10127;BME280;13080;42.608;23.362;2023-03-14T03:31:21;150775.34;;;-1.32;73.65
10127;BME280;13080;42.608;23.362;2023-03-14T03:33:49;150756.03;;;-1.40;74.04
10127;BME280;13080;42.608;23.362;2023-03-14T03:36:20;150747.06;;;-1.43;72.99
10127;BME280;13080;42.608;23.362;2023-03-14T03:38:47;150738.03;;;-1.47;73.35
10127;BME280;13080;42.608;23.362;2023-03-14T03:41:14;150736.75;;;-1.48;73.47
10127;BME280;13080;42.608;23.362;2023-03-14T03:43:41;150744.44;;;-1.44;72.95
10127;BME280;13080;42.608;23.362;2023-03-14T03:46:08;150741.91;;;-1.45;72.35
10127;BME280;13080;42.608;23.362;2023-03-14T03:48:35;150740.59;;;-1.46;73.38
10127;BME280;13080;42.608;23.362;2023-03-14T03:51:04;150729.00;;;-1.51;73.16
10127;BME280;13080;42.608;23.362;2023-03-14T03:53:31;150727.72;;;-1.51;73.59
10127;BME280;13080;42.608;23.362;2023-03-14T03:55:57;150711.00;;;-1.58;74.47
10127;BME280;13080;42.608;23.362;2023-03-14T03:58:24;150711.00;;;-1.58;74.44
10127;BME280;13080;42.608;23.362;2023-03-14T04:00:51;150699.44;;;-1.62;76.02
10127;BME280;13080;42.608;23.362;2023-03-14T04:03:17;150711.00;;;-1.58;75.31
10127;BME280;13080;42.608;23.362;2023-03-14T04:05:44;150722.59;;;-1.53;74.13
10127;BME280;13080;42.608;23.362;2023-03-14T04:08:12;150711.00;;;-1.58;74.64
10127;BME280;13080;42.608;23.362;2023-03-14T04:10:39;150695.56;;;-1.64;75.64
10127;BME280;13080;42.608;23.362;2023-03-14T04:13:06;150685.31;;;-1.68;76.00
10127;BME280;13080;42.608;23.362;2023-03-14T04:15:32;150677.56;;;-1.71;75.86
10127;BME280;13080;42.608;23.362;2023-03-14T04:17:59;150677.56;;;-1.71;75.90
10127;BME280;13080;42.608;23.362;2023-03-14T04:20:26;150667.28;;;-1.75;75.31
10127;BME280;13080;42.608;23.362;2023-03-14T04:22:52;150669.88;;;-1.74;75.73
10127;BME280;13080;42.608;23.362;2023-03-14T04:25:21;150673.69;;;-1.73;75.82
10127;BME280;13080;42.608;23.362;2023-03-14T04:27:47;150671.16;;;-1.74;75.71
10127;BME280;13080;42.608;23.362;2023-03-14T04:30:14;150664.72;;;-1.76;75.64
10127;BME280;13080;42.608;23.362;2023-03-14T04:32:41;150651.88;;;-1.81;75.70
10127;BME280;13080;42.608;23.362;2023-03-14T04:35:08;150645.41;;;-1.84;76.52
10127;BME280;13080;42.608;23.362;2023-03-14T04:37:35;150644.16;;;-1.84;76.69
10127;BME280;13080;42.608;23.362;2023-03-14T04:40:01;150639.00;;;-1.86;76.86
10127;BME280;13080;42.608;23.362;2023-03-14T04:42:32;150651.88;;;-1.81;80.19
10127;BME280;13080;42.608;23.362;2023-03-14T04:44:59;150648.00;;;-1.83;78.32
10127;BME280;13080;42.608;23.362;2023-03-14T04:47:26;150654.44;;;-1.80;77.55
10127;BME280;13080;42.608;23.362;2023-03-14T04:49:53;150654.44;;;-1.80;76.74
10127;BME280;13080;42.608;23.362;2023-03-14T04:52:19;150658.31;;;-1.79;75.86
10127;BME280;13080;42.608;23.362;2023-03-14T04:54:46;150657.03;;;-1.79;76.38
10127;BME280;13080;42.608;23.362;2023-03-14T04:57:13;150660.84;;;-1.78;76.13
10127;BME280;13080;42.608;23.362;2023-03-14T04:59:41;150671.16;;;-1.74;75.35
10127;BME280;13080;42.608;23.362;2023-03-14T05:02:08;150682.72;;;-1.69;74.43
10127;BME280;13080;42.608;23.362;2023-03-14T05:04:34;150689.16;;;-1.67;74.71
10127;BME280;13080;42.608;23.362;2023-03-14T05:07:01;150718.72;;;-1.55;74.65
10127;BME280;13080;42.608;23.362;2023-03-14T05:09:28;150714.88;;;-1.56;74.12
10127;BME280;13080;42.608;23.362;2023-03-14T05:11:55;150741.91;;;-1.45;74.45
10127;BME280;13080;42.608;23.362;2023-03-14T05:14:21;150744.44;;;-1.44;73.76
10127;BME280;13080;42.608;23.362;2023-03-14T05:16:49;150752.16;;;-1.41;74.50
10127;BME280;13080;42.608;23.362;2023-03-14T05:19:16;150758.63;;;-1.39;74.96
10127;BME280;13080;42.608;23.362;2023-03-14T05:21:43;150771.47;;;-1.34;74.82
10127;BME280;13080;42.608;23.362;2023-03-14T05:24:10;150785.59;;;-1.28;73.96
10127;BME280;13080;42.608;23.362;2023-03-14T05:26:36;150810.06;;;-1.18;73.54
10127;BME280;13080;42.608;23.362;2023-03-14T05:29:03;150839.66;;;-1.07;72.63
10127;BME280;13080;42.608;23.362;2023-03-14T05:31:30;150875.66;;;-0.92;72.76
10127;BME280;13080;42.608;23.362;2023-03-14T05:33:58;150914.28;;;-0.77;72.25
10127;BME280;13080;42.608;23.362;2023-03-14T05:36:25;150946.47;;;-0.64;71.29
10127;BME280;13080;42.608;23.362;2023-03-14T05:38:51;150970.91;;;-0.54;70.84
10127;BME280;13080;42.608;23.362;2023-03-14T05:41:18;151039.13;;;-0.27;70.74
10127;BME280;13080;42.608;23.362;2023-03-14T05:43:45;151049.44;;;-0.23;70.98
10127;BME280;13080;42.608;23.362;2023-03-14T05:46:12;151088.06;;;-0.08;69.60
10127;BME280;13080;42.608;23.362;2023-03-14T05:48:38;151108.69;;;0.01;69.45
10127;BME280;13080;42.608;23.362;2023-03-14T05:51:07;151127.97;;;0.08;69.68
10127;BME280;13080;42.608;23.362;2023-03-14T05:53:33;151139.56;;;0.13;69.39
10127;BME280;13080;42.608;23.362;2023-03-14T05:56:00;151161.47;;;0.22;70.76
10127;BME280;13080;42.608;23.362;2023-03-14T05:58:27;151180.81;;;0.29;69.76
10127;BME280;13080;42.608;23.362;2023-03-14T06:00:54;151204.00;;;0.38;67.58
10127;BME280;13080;42.608;23.362;2023-03-14T06:03:20;151247.75;;;0.56;66.96
10127;BME280;13080;42.608;23.362;2023-03-14T06:05:49;151252.91;;;0.58;67.19
10127;BME280;13080;42.608;23.362;2023-03-14T06:08:17;151260.69;;;0.61;68.06
10127;BME280;13080;42.608;23.362;2023-03-14T06:10:45;151290.31;;;0.73;67.71
10127;BME280;13080;42.608;23.362;2023-03-14T06:13:12;151283.88;;;0.70;67.69
10127;BME280;13080;42.608;23.362;2023-03-14T06:15:40;151295.47;;;0.75;68.64
10127;BME280;13080;42.608;23.362;2023-03-14T06:18:07;151350.88;;;0.97;68.24
10127;BME280;13080;42.608;23.362;2023-03-14T06:20:36;151354.72;;;0.98;68.46
10127;BME280;13080;42.608;23.362;2023-03-14T06:23:04;151335.41;;;0.91;69.72
10127;BME280;13080;42.608;23.362;2023-03-14T06:25:33;151362.47;;;1.01;69.49
10127;BME280;13080;42.608;23.362;2023-03-14T06:27:59;151379.25;;;1.08;70.03
10127;BME280;13080;42.608;23.362;2023-03-14T06:30:26;151374.06;;;1.06;70.11
10127;BME280;13080;42.608;23.362;2023-03-14T06:32:53;151402.44;;;1.17;70.07
10127;BME280;13080;42.608;23.362;2023-03-14T06:35:20;151437.22;;;1.31;69.58
10127;BME280;13080;42.608;23.362;2023-03-14T06:37:47;151466.88;;;1.43;69.31
10127;BME280;13080;42.608;23.362;2023-03-14T06:40:14;151478.47;;;1.48;68.70
10127;BME280;13080;42.608;23.362;2023-03-14T06:42:44;151509.44;;;1.60;68.66
10127;BME280;13080;42.608;23.362;2023-03-14T06:45:11;151515.88;;;1.62;69.09
10127;BME280;13080;42.608;23.362;2023-03-14T06:47:38;151532.66;;;1.69;68.73
10127;BME280;13080;42.608;23.362;2023-03-14T06:50:06;151561.03;;;1.80;68.24
10127;BME280;13080;42.608;23.362;2023-03-14T06:52:33;151580.34;;;1.88;67.72
10127;BME280;13080;42.608;23.362;2023-03-14T06:55:00;151601.00;;;1.96;68.39
10127;BME280;13080;42.608;23.362;2023-03-14T06:57:26;151651.31;;;2.16;65.27
10127;BME280;13080;42.608;23.362;2023-03-14T06:59:54;151647.44;;;2.15;66.18
10127;BME280;13080;42.608;23.362;2023-03-14T07:02:22;151675.81;;;2.26;65.33
10127;BME280;13080;42.608;23.362;2023-03-14T07:04:49;151713.25;;;2.41;64.52
10127;BME280;13080;42.608;23.362;2023-03-14T07:07:15;151717.13;;;2.42;64.81
10127;BME280;13080;42.608;23.362;2023-03-14T07:09:42;151728.75;;;2.47;64.91
10127;BME280;13080;42.608;23.362;2023-03-14T07:12:09;151733.91;;;2.49;65.62
10127;BME280;13080;42.608;23.362;2023-03-14T07:14:36;151754.53;;;2.57;64.99
10127;BME280;13080;42.608;23.362;2023-03-14T07:17:04;151772.59;;;2.64;65.74
10127;BME280;13080;42.608;23.362;2023-03-14T07:19:31;151781.63;;;2.68;65.92
10127;BME280;13080;42.608;23.362;2023-03-14T07:21:58;151811.31;;;2.80;65.93
10127;BME280;13080;42.608;23.362;2023-03-14T07:24:24;151832.00;;;2.88;65.43
10127;BME280;13080;42.608;23.362;2023-03-14T07:26:51;151847.50;;;2.94;64.68
10127;BME280;13080;42.608;23.362;2023-03-14T07:29:18;151855.22;;;2.97;65.07
10127;BME280;13080;42.608;23.362;2023-03-14T07:31:45;151893.97;;;3.12;65.13
10127;BME280;13080;42.608;23.362;2023-03-14T07:34:13;151948.16;;;3.34;63.17
10127;BME280;13080;42.608;23.362;2023-03-14T07:36:39;151948.16;;;3.34;62.31
10127;BME280;13080;42.608;23.362;2023-03-14T07:39:06;151963.69;;;3.40;63.71
10127;BME280;13080;42.608;23.362;2023-03-14T07:41:33;151966.28;;;3.41;62.36
10127;BME280;13080;42.608;23.362;2023-03-14T07:44:00;151979.19;;;3.46;62.13
10127;BME280;13080;42.608;23.362;2023-03-14T07:46:27;152010.16;;;3.59;61.97
10127;BME280;13080;42.608;23.362;2023-03-14T07:48:53;152007.59;;;3.58;61.71
10127;BME280;13080;42.608;23.362;2023-03-14T07:51:22;152029.56;;;3.66;62.32
10127;BME280;13080;42.608;23.362;2023-03-14T07:53:48;152064.44;;;3.80;61.80
10127;BME280;13080;42.608;23.362;2023-03-14T07:56:15;152096.75;;;3.93;61.23
10127;BME280;13080;42.608;23.362;2023-03-14T07:58:42;152122.56;;;4.03;60.55
10127;BME280;13080;42.608;23.362;2023-03-14T08:01:09;152174.25;;;4.24;60.48
10127;BME280;13080;42.608;23.362;2023-03-14T08:03:35;152179.41;;;4.26;59.24
10127;BME280;13080;42.608;23.362;2023-03-14T08:06:02;152196.22;;;4.32;59.07
10127;BME280;13080;42.608;23.362;2023-03-14T08:08:30;152225.97;;;4.44;57.76
10127;BME280;13080;42.608;23.362;2023-03-14T08:11:02;152251.81;;;4.54;58.70
10127;BME280;13080;42.608;23.362;2023-03-14T08:13:29;152267.31;;;4.61;58.49
10127;BME280;13080;42.608;23.362;2023-03-14T08:15:56;152299.66;;;4.73;58.37
10127;BME280;13080;42.608;23.362;2023-03-14T08:18:22;152328.09;;;4.85;57.03
10127;BME280;13080;42.608;23.362;2023-03-14T08:20:49;152321.66;;;4.82;57.54
10127;BME280;13080;42.608;23.362;2023-03-14T08:23:16;152382.38;;;5.06;56.72
10127;BME280;13080;42.608;23.362;2023-03-14T08:25:44;152396.63;;;5.12;55.44
10127;BME280;13080;42.608;23.362;2023-03-14T08:28:11;152392.72;;;5.10;55.01
10127;BME280;13080;42.608;23.362;2023-03-14T08:30:37;152403.09;;;5.14;54.81
10127;BME280;13080;42.608;23.362;2023-03-14T08:33:04;152426.38;;;5.24;54.52
10127;BME280;13080;42.608;23.362;2023-03-14T08:35:31;152412.16;;;5.18;54.94
10127;BME280;13080;42.608;23.362;2023-03-14T08:37:58;152431.53;;;5.26;54.70
10127;BME280;13080;42.608;23.362;2023-03-14T08:40:24;152449.63;;;5.33;54.14
10127;BME280;13080;42.608;23.362;2023-03-14T08:42:52;152472.91;;;5.42;54.68
10127;BME280;13080;42.608;23.362;2023-03-14T08:45:19;152520.81;;;5.61;52.90
10127;BME280;13080;42.608;23.362;2023-03-14T08:47:46;152537.63;;;5.68;55.11
10127;BME280;13080;42.608;23.362;2023-03-14T08:50:13;152580.31;;;5.84;52.34
10127;BME280;13080;42.608;23.362;2023-03-14T08:52:40;152620.47;;;6.00;51.01
10127;BME280;13080;42.608;23.362;2023-03-14T08:55:08;152611.44;;;5.97;51.00
10127;BME280;13080;42.608;23.362;2023-03-14T08:57:35;152621.81;;;6.01;52.19
10127;BME280;13080;42.608;23.362;2023-03-14T09:00:04;152661.91;;;6.17;53.08
10127;BME280;13080;42.608;23.362;2023-03-14T09:02:35;152692.97;;;6.29;52.18
10127;BME280;13080;42.608;23.362;2023-03-14T09:05:03;152727.91;;;6.43;50.37
10127;BME280;13080;42.608;23.362;2023-03-14T09:07:29;152748.63;;;6.51;50.26
10127;BME280;13080;42.608;23.362;2023-03-14T09:09:56;152756.38;;;6.54;49.42
10127;BME280;13080;42.608;23.362;2023-03-14T09:12:23;152760.28;;;6.56;50.38
10127;BME280;13080;42.608;23.362;2023-03-14T09:14:50;152795.22;;;6.70;49.89
10127;BME280;13080;42.608;23.362;2023-03-14T09:17:18;152831.53;;;6.84;49.98
10127;BME280;13080;42.608;23.362;2023-03-14T09:19:44;152867.78;;;6.98;49.35
10127;BME280;13080;42.608;23.362;2023-03-14T09:22:11;152907.91;;;7.14;48.47
10127;BME280;13080;42.608;23.362;2023-03-14T09:24:38;152920.84;;;7.19;48.64
10127;BME280;13080;42.608;23.362;2023-03-14T09:27:06;152948.06;;;7.30;50.14
10127;BME280;13080;42.608;23.362;2023-03-14T09:29:33;152977.84;;;7.42;47.44
10127;BME280;13080;42.608;23.362;2023-03-14T09:31:59;152998.59;;;7.50;48.08
10127;BME280;13080;42.608;23.362;2023-03-14T09:34:28;153027.09;;;7.61;48.96
10127;BME280;13080;42.608;23.362;2023-03-14T09:36:54;153080.22;;;7.82;47.18
10127;BME280;13080;42.608;23.362;2023-03-14T09:39:22;153073.75;;;7.80;46.47
10127;BME280;13080;42.608;23.362;2023-03-14T09:41:50;153056.91;;;7.73;45.96
10127;BME280;13080;42.608;23.362;2023-03-14T09:44:21;153054.34;;;7.72;46.87
10127;BME280;13080;42.608;23.362;2023-03-14T09:46:53;153099.69;;;7.90;46.50
10127;BME280;13080;42.608;23.362;2023-03-14T09:49:22;153142.44;;;8.07;45.75
10127;BME280;13080;42.608;23.362;2023-03-14T09:51:53;153187.81;;;8.25;46.03
10127;BME280;13080;42.608;23.362;2023-03-14T09:54:30;153189.16;;;8.25;45.97
10127;BME280;13080;42.608;23.362;2023-03-14T09:56:57;153217.66;;;8.37;45.32
10127;BME280;13080;42.608;23.362;2023-03-14T09:59:26;153255.28;;;8.51;45.50
10127;BME280;13080;42.608;23.362;2023-03-14T10:01:55;153273.44;;;8.59;46.41
10127;BME280;13080;42.608;23.362;2023-03-14T10:04:22;153289.00;;;8.65;44.92
10127;BME280;13080;42.608;23.362;2023-03-14T10:06:50;153327.94;;;8.80;45.48
10127;BME280;13080;42.608;23.362;2023-03-14T10:09:20;153286.44;;;8.64;44.35
10127;BME280;13080;42.608;23.362;2023-03-14T10:11:53;153314.97;;;8.75;44.90
10127;BME280;13080;42.608;23.362;2023-03-14T10:14:30;153311.06;;;8.73;45.99
10127;BME280;13080;42.608;23.362;2023-03-14T10:17:04;153344.78;;;8.87;45.03
10127;BME280;13080;42.608;23.362;2023-03-14T10:19:32;153392.81;;;9.06;45.09
10127;BME280;13080;42.608;23.362;2023-03-14T10:22:03;153404.47;;;9.10;44.84
10127;BME280;13080;42.608;23.362;2023-03-14T10:24:32;153400.59;;;9.09;45.07
10127;BME280;13080;42.608;23.362;2023-03-14T10:27:00;153425.22;;;9.19;44.98
10127;BME280;13080;42.608;23.362;2023-03-14T10:29:28;153427.84;;;9.20;44.32
10127;BME280;13080;42.608;23.362;2023-03-14T10:31:58;153413.53;;;9.14;44.96
10127;BME280;13080;42.608;23.362;2023-03-14T10:34:27;153438.22;;;9.24;44.91
10127;BME280;13080;42.608;23.362;2023-03-14T10:36:56;153490.13;;;9.44;44.40
10127;BME280;13080;42.608;23.362;2023-03-14T10:39:31;153517.34;;;9.55;44.67
10127;BME280;13080;42.608;23.362;2023-03-14T10:42:05;153522.53;;;9.57;45.17
10127;BME280;13080;42.608;23.362;2023-03-14T10:44:38;153582.25;;;9.81;44.07
10127;BME280;13080;42.608;23.362;2023-03-14T10:47:05;153619.91;;;9.95;45.21
10127;BME280;13080;42.608;23.362;2023-03-14T10:49:34;153631.59;;;10.00;44.42
10127;BME280;13080;42.608;23.362;2023-03-14T10:52:03;153604.31;;;9.89;44.41
10127;BME280;13080;42.608;23.362;2023-03-14T10:54:40;153613.38;;;9.93;45.88
10127;BME280;13080;42.608;23.362;2023-03-14T10:57:11;153618.59;;;9.95;44.07
10127;BME280;13080;42.608;23.362;2023-03-14T10:59:39;153645.84;;;10.06;44.27
10127;BME280;13080;42.608;23.362;2023-03-14T11:02:20;153647.13;;;10.06;43.62
10127;BME280;13080;42.608;23.362;2023-03-14T11:04:57;153638.09;;;10.03;44.02
10127;BME280;13080;42.608;23.362;2023-03-14T11:07:33;153669.22;;;10.15;44.14
10127;BME280;13080;42.608;23.362;2023-03-14T11:10:12;153691.28;;;10.24;44.41
10127;BME280;13080;42.608;23.362;2023-03-14T11:12:46;153717.34;;;10.34;44.82
10127;BME280;13080;42.608;23.362;2023-03-14T11:15:20;153757.59;;;10.50;42.56
10127;BME280;13080;42.608;23.362;2023-03-14T11:17:58;153761.44;;;10.51;42.61
10127;BME280;13080;42.608;23.362;2023-03-14T11:20:35;153752.38;;;10.48;43.21
10127;BME280;13080;42.608;23.362;2023-03-14T11:23:12;153752.38;;;10.48;42.76
10127;BME280;13080;42.608;23.362;2023-03-14T11:25:44;153749.75;;;10.47;42.70
10127;BME280;13080;42.608;23.362;2023-03-14T11:28:18;153795.22;;;10.65;43.21
10127;BME280;13080;42.608;23.362;2023-03-14T11:30:51;153804.34;;;10.68;41.73
10127;BME280;13080;42.608;23.362;2023-03-14T11:33:22;153805.63;;;10.69;42.22
10127;BME280;13080;42.608;23.362;2023-03-14T11:35:57;153848.50;;;10.86;43.25
10127;BME280;13080;42.608;23.362;2023-03-14T11:38:32;153878.38;;;10.97;42.22
10127;BME280;13080;42.608;23.362;2023-03-14T11:41:02;153906.97;;;11.09;41.26
10127;BME280;13080;42.608;23.362;2023-03-14T11:43:33;153938.13;;;11.21;41.85
10127;BME280;13080;42.608;23.362;2023-03-14T11:46:08;153929.06;;;11.17;41.37
10127;BME280;13080;42.608;23.362;2023-03-14T11:48:42;153947.22;;;11.24;41.33
10127;BME280;13080;42.608;23.362;2023-03-14T11:51:16;153948.53;;;11.25;41.41
10127;BME280;13080;42.608;23.362;2023-03-14T11:53:55;153984.94;;;11.39;40.48
10127;BME280;13080;42.608;23.362;2023-03-14T11:56:31;153983.59;;;11.39;40.67
10127;BME280;13080;42.608;23.362;2023-03-14T11:59:02;154025.22;;;11.55;39.99
10127;BME280;13080;42.608;23.362;2023-03-14T12:01:37;153971.91;;;11.34;40.21
10127;BME280;13080;42.608;23.362;2023-03-14T12:04:11;153988.81;;;11.41;41.06
10127;BME280;13080;42.608;23.362;2023-03-14T12:06:45;154026.50;;;11.56;40.00
10127;BME280;13080;42.608;23.362;2023-03-14T12:09:14;154031.72;;;11.58;40.88
10127;BME280;13080;42.608;23.362;2023-03-14T12:11:47;154086.31;;;11.79;39.71
10127;BME280;13080;42.608;23.362;2023-03-14T12:14:21;154100.59;;;11.85;39.29
10127;BME280;13080;42.608;23.362;2023-03-14T12:16:54;154114.97;;;11.91;39.26
10127;BME280;13080;42.608;23.362;2023-03-14T12:19:37;154118.84;;;11.92;37.85
10127;BME280;13080;42.608;23.362;2023-03-14T12:22:24;154135.75;;;11.99;38.32
10127;BME280;13080;42.608;23.362;2023-03-14T12:24:55;154107.16;;;11.88;38.75
10127;BME280;13080;42.608;23.362;2023-03-14T12:27:49;154125.34;;;11.95;39.68
10127;BME280;13080;42.608;23.362;2023-03-14T12:30:30;154173.47;;;12.14;37.30
10127;BME280;13080;42.608;23.362;2023-03-14T12:33:31;154176.06;;;12.15;38.46
10127;BME280;13080;42.608;23.362;2023-03-14T12:36:01;154200.78;;;12.24;38.06
10127;BME280;13080;42.608;23.362;2023-03-14T12:38:37;154218.97;;;12.32;37.27
10127;BME280;13080;42.608;23.362;2023-03-14T12:41:14;154261.88;;;12.48;36.44
10127;BME280;13080;42.608;23.362;2023-03-14T12:43:43;154255.38;;;12.46;37.17
10127;BME280;13080;42.608;23.362;2023-03-14T12:46:25;154277.50;;;12.55;36.53
10127;BME280;13080;42.608;23.362;2023-03-14T12:49:03;154268.41;;;12.51;36.57
10127;BME280;13080;42.608;23.362;2023-03-14T12:51:35;154250.19;;;12.44;36.72
10127;BME280;13080;42.608;23.362;2023-03-14T12:54:21;154267.09;;;12.51;36.35